createdAt,value
2018-02-19T00:00:20.167Z,4.60
2018-02-19T00:02:47.724Z,4.50
2018-02-19T00:05:15.307Z,4.40
2018-02-19T00:07:42.967Z,4.40
2018-02-19T00:10:10.511Z,4.40
2018-02-19T00:12:38.071Z,4.40
2018-02-19T00:15:05.629Z,4.50
2018-02-19T00:17:33.154Z,4.40
2018-02-19T00:20:00.754Z,4.50
2018-02-19T00:22:28.309Z,4.40
2018-02-19T00:24:55.845Z,4.40
2018-02-19T00:27:23.429Z,4.50
2018-02-19T00:29:50.983Z,4.40
2018-02-19T00:32:18.550Z,4.40
2018-02-19T00:34:46.150Z,4.50
2018-02-19T00:37:13.705Z,4.50
2018-02-19T00:39:41.270Z,4.60
2018-02-19T00:42:08.792Z,4.60
2018-02-19T00:44:36.342Z,4.50
2018-02-19T00:47:03.904Z,4.50
2018-02-19T00:49:31.434Z,4.50
2018-02-19T00:51:59.001Z,4.40
2018-02-19T00:54:27.348Z,4.30
2018-02-19T00:56:54.863Z,4.30
2018-02-19T00:59:22.403Z,4.40
2018-02-19T01:01:49.981Z,4.40
2018-02-19T01:04:17.523Z,4.30
2018-02-19T01:06:45.096Z,4.30
2018-02-19T01:09:12.661Z,4.30
2018-02-19T01:11:40.260Z,4.40
2018-02-19T01:14:07.788Z,4.40
2018-02-19T01:16:35.341Z,4.40
2018-02-19T01:19:02.951Z,4.40
2018-02-19T01:21:30.511Z,4.50
2018-02-19T01:23:58.114Z,4.50
2018-02-19T01:26:26.398Z,4.60
2018-02-19T01:28:54.014Z,4.50
2018-02-19T01:31:21.573Z,4.50
2018-02-19T01:33:49.134Z,4.50
2018-02-19T01:36:16.688Z,4.50
2018-02-19T01:38:44.251Z,4.50
2018-02-19T01:41:11.787Z,4.40
2018-02-19T01:43:39.348Z,4.40
2018-02-19T01:46:06.930Z,4.40
2018-02-19T01:48:34.495Z,4.50
2018-02-19T01:51:02.063Z,4.50
2018-02-19T01:53:29.615Z,4.50
2018-02-19T01:55:57.150Z,4.40
2018-02-19T01:58:24.721Z,4.40
2018-02-19T02:00:52.277Z,4.30
2018-02-19T02:03:19.806Z,4.20
2018-02-19T02:05:47.366Z,4.10
2018-02-19T02:08:14.926Z,4.10
2018-02-19T02:10:42.569Z,4.10
2018-02-19T02:13:10.888Z,4.20
2018-02-19T02:15:38.478Z,4.30
2018-02-19T02:18:06.055Z,4.30
2018-02-19T02:20:33.617Z,4.30
2018-02-19T02:23:01.177Z,4.40
2018-02-19T02:25:28.793Z,4.50
2018-02-19T02:27:57.169Z,4.40
2018-02-19T02:30:24.731Z,4.40
2018-02-19T02:32:52.302Z,4.50
2018-02-19T02:35:19.831Z,4.50
2018-02-19T02:37:47.409Z,4.40
2018-02-19T02:40:14.988Z,4.40
2018-02-19T02:42:42.560Z,4.30
2018-02-19T02:45:10.183Z,4.30
2018-02-19T02:47:37.773Z,4.20
2018-02-19T02:50:05.313Z,4.20
2018-02-19T02:52:32.836Z,4.20
2018-02-19T02:55:00.391Z,4.20
2018-02-19T02:57:27.967Z,4.30
2018-02-19T02:59:55.491Z,4.20
2018-02-19T03:02:23.060Z,4.20
2018-02-19T03:04:50.632Z,4.20
2018-02-19T03:07:18.950Z,4.30
2018-02-19T03:09:46.468Z,4.30
2018-02-19T03:12:14.803Z,4.50
2018-02-19T03:14:42.331Z,4.40
2018-02-19T03:17:09.897Z,4.40
2018-02-19T03:19:37.456Z,4.30
2018-02-19T03:22:05.042Z,4.40
2018-02-19T03:24:32.581Z,4.40
2018-02-19T03:27:00.155Z,4.40
2018-02-19T03:29:27.755Z,4.40
2018-02-19T03:31:55.276Z,4.40
2018-02-19T03:34:22.824Z,4.30
2018-02-19T03:36:50.431Z,4.30
2018-02-19T03:39:18.000Z,4.30
2018-02-19T03:41:45.560Z,4.30
2018-02-19T03:44:13.948Z,4.30
2018-02-19T03:46:41.495Z,4.30
2018-02-19T03:49:09.056Z,4.30
2018-02-19T03:51:36.619Z,4.30
2018-02-19T03:54:04.904Z,4.40
2018-02-19T03:56:32.469Z,4.40
2018-02-19T03:59:00.795Z,4.50
2018-02-19T04:01:28.363Z,4.50
2018-02-19T04:03:55.920Z,4.40
2018-02-19T04:06:23.549Z,4.50
2018-02-19T04:08:51.082Z,4.40
2018-02-19T04:11:19.353Z,4.30
2018-02-19T04:13:47.673Z,4.30
2018-02-19T04:16:15.252Z,4.30
2018-02-19T04:18:42.804Z,4.30
2018-02-19T04:21:10.307Z,4.30
2018-02-19T04:23:37.880Z,4.30
2018-02-19T04:26:06.197Z,4.10
2018-02-19T04:28:33.797Z,4.10
2018-02-19T04:31:01.331Z,4.10
2018-02-19T04:33:28.893Z,4.00
2018-02-19T04:35:56.438Z,3.90
2018-02-19T04:38:24.002Z,3.90
2018-02-19T04:40:51.531Z,3.90
2018-02-19T04:43:19.154Z,4.00
2018-02-19T04:46:06.547Z,4.10
2018-02-19T04:48:34.101Z,4.20
2018-02-19T04:51:01.676Z,4.20
2018-02-19T04:53:29.209Z,4.20
2018-02-19T04:55:56.723Z,4.10
2018-02-19T04:58:24.267Z,4.10
2018-02-19T05:00:51.800Z,4.10
2018-02-19T05:03:20.122Z,4.10
2018-02-19T05:05:47.685Z,4.10
2018-02-19T05:08:15.205Z,4.10
2018-02-19T05:10:42.763Z,4.10
2018-02-19T05:13:10.339Z,4.10
2018-02-19T05:15:37.877Z,4.10
2018-02-19T05:18:05.446Z,4.10
2018-02-19T05:20:32.968Z,4.00
2018-02-19T05:23:00.547Z,4.00
2018-02-19T05:25:28.078Z,4.00
2018-02-19T05:27:55.599Z,4.00
2018-02-19T05:30:23.221Z,4.10
2018-02-19T05:32:50.798Z,4.10
2018-02-19T05:35:18.331Z,4.10
2018-02-19T05:37:45.858Z,4.10
2018-02-19T05:40:14.201Z,4.10
2018-02-19T05:42:41.728Z,4.10
2018-02-19T05:45:09.298Z,4.10
2018-02-19T05:47:36.879Z,4.10
2018-02-19T05:50:04.455Z,4.00
2018-02-19T05:52:31.995Z,4.00
2018-02-19T05:54:59.520Z,4.00
2018-02-19T05:57:27.088Z,4.00
2018-02-19T05:59:55.495Z,4.00
2018-02-19T06:02:23.024Z,4.00
2018-02-19T06:04:50.743Z,4.00
2018-02-19T06:07:18.296Z,4.00
2018-02-19T06:09:45.817Z,4.10
2018-02-19T06:12:13.343Z,4.00
2018-02-19T06:14:41.480Z,4.10
2018-02-19T06:17:09.084Z,4.10
2018-02-19T06:19:36.849Z,4.10
2018-02-19T06:22:04.408Z,4.00
2018-02-19T06:24:32.816Z,4.00
2018-02-19T06:27:00.353Z,4.00
2018-02-19T06:29:27.916Z,4.00
2018-02-19T06:31:56.213Z,4.20
2018-02-19T06:34:23.808Z,4.20
2018-02-19T06:36:51.379Z,4.30
2018-02-19T06:39:18.927Z,4.30
2018-02-19T06:41:46.523Z,4.40
2018-02-19T06:44:14.084Z,4.40
2018-02-19T06:46:41.660Z,4.40
2018-02-19T06:49:09.222Z,4.40
2018-02-19T06:51:36.780Z,4.50
2018-02-19T06:54:04.375Z,4.60
2018-02-19T06:56:32.005Z,4.60
2018-02-19T06:58:59.525Z,4.60
2018-02-19T07:01:27.187Z,4.60
2018-02-19T07:03:54.732Z,4.60
2018-02-19T07:06:22.288Z,4.40
2018-02-19T07:08:49.856Z,4.30
2018-02-19T07:11:17.413Z,4.30
2018-02-19T07:13:44.976Z,4.30
2018-02-19T07:16:12.619Z,4.30
2018-02-19T07:18:40.144Z,4.30
2018-02-19T07:21:08.410Z,4.20
2018-02-19T07:23:35.952Z,4.20
2018-02-19T07:26:03.503Z,4.10
2018-02-19T07:28:31.111Z,4.20
2018-02-19T07:30:58.720Z,4.30
2018-02-19T07:33:26.262Z,4.30
2018-02-19T07:35:58.859Z,4.20
2018-02-19T07:38:26.416Z,4.20
2018-02-19T07:40:54.063Z,4.20
2018-02-19T07:43:21.643Z,4.30
2018-02-19T07:45:49.245Z,4.20
2018-02-19T07:48:16.872Z,4.20
2018-02-19T07:50:44.428Z,4.20
2018-02-19T07:53:12.006Z,4.30
2018-02-19T07:55:39.759Z,4.30
2018-02-19T07:58:07.332Z,4.30
2018-02-19T08:00:34.889Z,4.30
2018-02-19T08:03:02.756Z,4.40
2018-02-19T08:05:30.379Z,4.40
2018-02-19T08:07:57.915Z,4.30
2018-02-19T08:10:25.484Z,4.40
2018-02-19T08:12:53.036Z,4.50
2018-02-19T08:15:20.657Z,4.50
2018-02-19T08:17:48.259Z,4.50
2018-02-19T08:20:15.820Z,4.50
2018-02-19T08:22:43.424Z,4.40
2018-02-19T08:25:10.940Z,4.30
2018-02-19T08:27:38.494Z,4.50
2018-02-19T08:30:06.093Z,4.40
2018-02-19T08:32:33.668Z,4.40
2018-02-19T08:35:01.279Z,4.30
2018-02-19T08:37:28.869Z,4.40
2018-02-19T08:39:56.592Z,4.40
2018-02-19T08:42:25.527Z,4.40
2018-02-19T08:44:53.115Z,4.40
2018-02-19T08:47:20.747Z,4.30
2018-02-19T08:49:48.419Z,4.40
2018-02-19T08:52:15.940Z,4.40
2018-02-19T08:54:44.272Z,4.50
2018-02-19T08:57:11.815Z,4.50
2018-02-19T08:59:39.339Z,4.50
2018-02-19T09:02:07.684Z,4.50
2018-02-19T09:04:36.071Z,4.60
2018-02-19T09:07:03.693Z,4.60
2018-02-19T09:09:31.258Z,4.60
2018-02-19T09:11:58.819Z,4.50
2018-02-19T09:14:26.394Z,4.50
2018-02-19T09:16:54.005Z,4.60
2018-02-19T09:19:21.692Z,4.60
2018-02-19T09:21:49.329Z,4.50
2018-02-19T09:24:16.908Z,4.40
2018-02-19T09:26:44.463Z,4.40
2018-02-19T09:29:12.152Z,4.40
2018-02-19T09:31:39.872Z,4.50
2018-02-19T09:34:07.441Z,4.50
2018-02-19T09:36:35.009Z,4.50
2018-02-19T09:39:02.538Z,4.60
2018-02-19T09:41:30.980Z,4.60
2018-02-19T09:43:58.533Z,4.50
2018-02-19T09:46:26.109Z,4.60
2018-02-19T09:48:53.669Z,4.50
2018-02-19T09:51:21.266Z,4.70
2018-02-19T09:53:49.629Z,4.70
2018-02-19T09:56:17.254Z,4.60
2018-02-19T09:58:44.799Z,4.60
2018-02-19T10:01:12.327Z,4.60
2018-02-19T10:03:39.920Z,4.60
2018-02-19T10:06:07.447Z,4.70
2018-02-19T10:08:36.524Z,4.70
2018-02-19T10:11:04.056Z,4.70
2018-02-19T10:13:33.236Z,4.70
2018-02-19T10:16:00.880Z,4.60
2018-02-19T10:18:28.570Z,4.60
2018-02-19T10:20:56.907Z,4.50
2018-02-19T10:23:24.511Z,4.50
2018-02-19T10:25:52.092Z,4.60
2018-02-19T10:28:19.728Z,4.60
2018-02-19T10:30:47.304Z,4.60
2018-02-19T10:33:14.856Z,4.60
2018-02-19T10:35:42.483Z,4.60
2018-02-19T10:38:10.024Z,4.50
2018-02-19T10:40:38.343Z,4.60
2018-02-19T10:43:05.900Z,4.50
2018-02-19T10:45:33.749Z,4.60
2018-02-19T10:48:01.339Z,4.60
2018-02-19T10:50:29.250Z,4.60
2018-02-19T10:52:57.567Z,4.70
2018-02-19T10:55:25.079Z,4.70
2018-02-19T10:57:52.657Z,4.60
2018-02-19T11:00:26.654Z,4.70
2018-02-19T11:02:54.224Z,4.70
2018-02-19T11:05:21.836Z,4.60
2018-02-19T11:07:49.385Z,4.60
2018-02-19T11:10:16.974Z,4.70
2018-02-19T11:12:44.628Z,4.70
2018-02-19T11:15:12.942Z,5.00
2018-02-19T11:17:40.505Z,4.90
2018-02-19T11:20:08.925Z,4.80
2018-02-19T11:22:36.502Z,4.80
2018-02-19T11:25:04.048Z,4.70
2018-02-19T11:27:31.743Z,4.70
2018-02-19T11:29:59.373Z,4.90
2018-02-19T11:32:26.964Z,5.00
2018-02-19T11:34:54.557Z,5.10
2018-02-19T11:37:22.120Z,4.90
2018-02-19T11:39:49.694Z,4.90
2018-02-19T11:42:17.276Z,4.90
2018-02-19T11:44:44.821Z,4.90
2018-02-19T11:47:12.358Z,4.90
2018-02-19T11:49:40.041Z,4.90
2018-02-19T11:52:07.566Z,4.80
2018-02-19T11:54:35.164Z,4.90
2018-02-19T11:57:02.705Z,4.90
2018-02-19T11:59:30.262Z,4.80
2018-02-19T12:01:57.964Z,4.90
2018-02-19T12:04:25.598Z,4.90
2018-02-19T12:06:53.904Z,4.80
2018-02-19T12:09:21.795Z,4.80
2018-02-19T12:11:49.314Z,4.90
2018-02-19T12:14:16.910Z,4.90
2018-02-19T12:16:44.517Z,4.90
2018-02-19T12:19:12.095Z,4.70
2018-02-19T12:21:39.918Z,4.80
2018-02-19T12:24:07.672Z,4.90
2018-02-19T12:26:35.252Z,4.90
2018-02-19T12:29:02.771Z,5.00
2018-02-19T12:31:30.473Z,5.00
2018-02-19T12:33:58.053Z,5.00
2018-02-19T12:36:25.610Z,5.00
2018-02-19T12:38:53.191Z,5.00
2018-02-19T12:41:21.001Z,4.90
2018-02-19T12:43:48.611Z,4.90
2018-02-19T12:46:16.170Z,5.00
2018-02-19T12:48:43.728Z,5.00
2018-02-19T12:51:11.409Z,5.00
2018-02-19T12:53:39.042Z,4.90
2018-02-19T12:56:07.420Z,5.00
2018-02-19T12:58:35.848Z,5.00
2018-02-19T13:01:03.493Z,5.00
2018-02-19T13:03:31.033Z,5.00
2018-02-19T13:05:59.359Z,5.10
2018-02-19T13:08:26.939Z,5.10
2018-02-19T13:10:54.498Z,5.00
2018-02-19T13:13:22.103Z,5.00
2018-02-19T13:15:49.639Z,5.00
2018-02-19T13:18:17.190Z,5.00
2018-02-19T13:20:44.794Z,4.90
2018-02-19T13:23:12.335Z,5.00
2018-02-19T13:25:39.969Z,4.90
2018-02-19T13:28:07.608Z,4.90
2018-02-19T13:30:35.165Z,5.00
2018-02-19T13:33:02.756Z,5.00
2018-02-19T13:35:31.143Z,5.00
2018-02-19T13:37:58.674Z,5.00
2018-02-19T13:40:26.345Z,5.10
2018-02-19T13:42:53.879Z,5.10
2018-02-19T13:45:21.504Z,5.20
2018-02-19T13:47:49.063Z,5.20
2018-02-19T13:50:16.686Z,5.20
2018-02-19T13:52:44.396Z,5.20
2018-02-19T13:55:11.995Z,5.30
2018-02-19T13:57:39.616Z,5.30
2018-02-19T14:00:07.224Z,5.30
2018-02-19T14:02:34.780Z,5.40
2018-02-19T14:05:03.224Z,5.50
2018-02-19T14:07:31.021Z,5.50
2018-02-19T14:09:58.640Z,5.50
2018-02-19T14:12:26.208Z,5.50
2018-02-19T14:14:53.809Z,5.20
2018-02-19T14:17:21.479Z,5.30
2018-02-19T14:19:48.994Z,5.30
2018-02-19T14:22:16.635Z,5.20
2018-02-19T14:24:44.967Z,5.10
2018-02-19T14:27:12.617Z,5.10
2018-02-19T14:29:40.176Z,5.20
2018-02-19T14:32:07.807Z,5.20
2018-02-19T14:34:36.166Z,5.30
2018-02-19T14:37:04.508Z,5.20
2018-02-19T14:39:32.121Z,5.30
2018-02-19T14:41:59.796Z,5.30
2018-02-19T14:44:27.377Z,5.40
2018-02-19T14:46:54.941Z,5.40
2018-02-19T14:49:22.608Z,5.40
2018-02-19T14:51:50.197Z,5.30
2018-02-19T14:54:18.037Z,5.40
2018-02-19T14:56:45.668Z,5.50
2018-02-19T14:59:14.109Z,5.40
2018-02-19T15:01:41.716Z,5.30
2018-02-19T15:04:09.295Z,5.30
2018-02-19T15:06:36.874Z,6.80
2018-02-19T15:09:04.596Z,5.30
2018-02-19T15:11:32.133Z,5.30
2018-02-19T15:13:59.705Z,5.20
2018-02-19T15:16:27.408Z,5.20
2018-02-19T15:18:54.980Z,5.20
2018-02-19T15:21:22.548Z,5.20
2018-02-19T15:23:50.174Z,5.30
2018-02-19T15:26:18.526Z,5.20
2018-02-19T15:28:46.092Z,5.20
2018-02-19T15:31:13.693Z,5.20
2018-02-19T15:33:42.214Z,5.20
2018-02-19T15:36:09.834Z,5.10
2018-02-19T15:38:37.540Z,5.20
2018-02-19T15:41:05.166Z,5.10
2018-02-19T15:43:32.789Z,5.10
2018-02-19T15:46:00.378Z,5.10
2018-02-19T15:48:28.007Z,5.20
2018-02-19T15:50:55.552Z,5.20
2018-02-19T15:53:23.139Z,5.00
2018-02-19T15:55:50.672Z,5.00
2018-02-19T15:58:19.007Z,5.00
2018-02-19T16:00:46.588Z,5.00
2018-02-19T16:03:14.147Z,5.00
2018-02-19T16:05:41.699Z,5.00
2018-02-19T16:08:09.240Z,4.90
2018-02-19T16:10:36.805Z,4.80
2018-02-19T16:13:05.100Z,4.90
2018-02-19T16:15:32.684Z,4.90
2018-02-19T16:18:00.993Z,4.70
2018-02-19T16:20:28.548Z,4.70
2018-02-19T16:22:56.161Z,4.70
2018-02-19T16:25:23.711Z,4.80
2018-02-19T16:27:52.180Z,4.80
2018-02-19T16:30:19.785Z,4.70
2018-02-19T16:32:47.370Z,4.80
2018-02-19T16:35:14.978Z,4.60
2018-02-19T16:37:42.528Z,4.70
2018-02-19T16:40:10.395Z,4.60
2018-02-19T16:42:37.921Z,4.70
2018-02-19T16:45:05.548Z,4.60
2018-02-19T16:47:33.860Z,4.50
2018-02-19T16:50:01.416Z,4.40
2018-02-19T16:52:28.980Z,4.50
2018-02-19T16:54:56.588Z,4.50
2018-02-19T16:57:24.138Z,4.50
2018-02-19T16:59:51.676Z,4.50
2018-02-19T17:02:19.261Z,4.50
2018-02-19T17:04:46.880Z,4.60
2018-02-19T17:07:14.464Z,4.50
2018-02-19T17:09:42.127Z,4.50
2018-02-19T17:12:09.677Z,4.60
2018-02-19T17:14:37.232Z,4.60
2018-02-19T17:17:04.811Z,4.60
2018-02-19T17:19:32.514Z,4.60
2018-02-19T17:22:00.667Z,4.60
2018-02-19T17:24:28.229Z,4.60
2018-02-19T17:26:55.789Z,4.60
2018-02-19T17:29:23.376Z,4.60
2018-02-19T17:31:50.953Z,4.50
2018-02-19T17:34:19.388Z,4.50
2018-02-19T17:36:46.922Z,4.50
2018-02-19T17:39:14.506Z,4.60
2018-02-19T17:41:42.074Z,4.50
2018-02-19T17:44:09.661Z,4.40
2018-02-19T17:46:37.289Z,4.40
2018-02-19T17:49:04.854Z,4.40
2018-02-19T17:51:32.428Z,4.30
2018-02-19T17:54:00.050Z,4.30
2018-02-19T17:56:27.599Z,4.20
2018-02-19T17:58:55.480Z,4.20
2018-02-19T18:01:23.026Z,4.20
2018-02-19T18:03:50.575Z,4.20
2018-02-19T18:06:18.123Z,4.30
2018-02-19T18:08:45.697Z,4.40
2018-02-19T18:11:13.256Z,4.40
2018-02-19T18:13:40.862Z,4.40
2018-02-19T18:16:08.394Z,4.30
2018-02-19T18:18:36.087Z,4.10
2018-02-19T18:21:03.607Z,4.20
2018-02-19T18:23:31.179Z,4.30
2018-02-19T18:25:58.796Z,4.30
2018-02-19T18:28:26.392Z,4.30
2018-02-19T18:30:53.946Z,4.30
2018-02-19T18:33:21.484Z,4.30
2018-02-19T18:35:49.142Z,4.30
2018-02-19T18:38:17.452Z,4.20
2018-02-19T18:40:45.025Z,4.20
2018-02-19T18:43:12.581Z,4.30
2018-02-19T18:45:40.192Z,4.30
2018-02-19T18:48:07.748Z,4.30
2018-02-19T18:50:35.339Z,4.20
2018-02-19T18:53:02.935Z,4.30
2018-02-19T18:55:30.533Z,4.20
2018-02-19T18:57:58.884Z,4.20
2018-02-19T19:00:26.458Z,4.20
2018-02-19T19:02:54.037Z,4.20
2018-02-19T19:05:21.606Z,4.30
2018-02-19T19:08:01.015Z,4.40
2018-02-19T19:10:40.298Z,4.30
2018-02-19T19:13:07.863Z,4.20
2018-02-19T19:15:35.395Z,4.10
2018-02-19T19:18:03.020Z,4.20
2018-02-19T19:20:30.569Z,4.20
2018-02-19T19:22:58.152Z,4.20
2018-02-19T19:25:25.734Z,4.20
2018-02-19T19:27:53.321Z,4.30
2018-02-19T19:30:20.913Z,4.40
2018-02-19T19:32:48.541Z,4.40
2018-02-19T19:35:16.127Z,4.40
2018-02-19T19:37:43.671Z,4.30
2018-02-19T19:40:11.246Z,4.30
2018-02-19T19:42:38.820Z,4.30
2018-02-19T19:45:06.389Z,4.30
2018-02-19T19:47:33.979Z,4.30
2018-02-19T19:50:01.560Z,4.20
2018-02-19T19:52:29.106Z,4.30
2018-02-19T19:54:56.693Z,4.40
2018-02-19T19:57:24.341Z,4.40
2018-02-19T19:59:51.900Z,4.40
2018-02-19T20:02:20.231Z,4.30
2018-02-19T20:04:47.852Z,4.30
2018-02-19T20:07:15.451Z,4.20
2018-02-19T20:09:42.986Z,4.20
2018-02-19T20:12:11.045Z,4.20
2018-02-19T20:14:38.634Z,4.30
2018-02-19T20:17:06.296Z,4.30
2018-02-19T20:19:33.860Z,4.30
2018-02-19T20:22:01.428Z,4.30
2018-02-19T20:24:28.988Z,4.40
2018-02-19T20:26:56.551Z,4.30
2018-02-19T20:29:24.107Z,4.30
2018-02-19T20:31:51.718Z,4.20
2018-02-19T20:34:19.223Z,4.10
2018-02-19T20:36:46.836Z,4.20
2018-02-19T20:39:15.146Z,4.30
2018-02-19T20:41:42.723Z,4.20
2018-02-19T20:44:10.271Z,4.20
2018-02-19T20:46:37.853Z,4.20
2018-02-19T20:49:05.408Z,4.20
2018-02-19T20:51:33.051Z,4.10
2018-02-19T20:54:00.628Z,4.20
2018-02-19T20:56:28.231Z,4.10
2018-02-19T20:58:55.851Z,4.10
2018-02-19T21:01:23.532Z,4.10
2018-02-19T21:03:51.080Z,4.20
2018-02-19T21:06:18.679Z,4.20
2018-02-19T21:08:46.199Z,4.10
2018-02-19T21:11:13.742Z,4.10
2018-02-19T21:13:42.076Z,4.10
2018-02-19T21:16:10.419Z,4.20
2018-02-19T21:18:37.981Z,4.20
2018-02-19T21:21:05.561Z,4.20
2018-02-19T21:23:33.089Z,4.30
2018-02-19T21:26:00.642Z,4.20
2018-02-19T21:28:29.064Z,4.20
2018-02-19T21:30:57.394Z,4.20
2018-02-19T21:33:24.924Z,4.20
2018-02-19T21:35:52.477Z,4.10
2018-02-19T21:38:20.036Z,4.30
2018-02-19T21:40:48.438Z,4.30
2018-02-19T21:43:16.015Z,4.30
2018-02-19T21:45:43.549Z,4.30
2018-02-19T21:48:11.071Z,4.30
2018-02-19T21:50:38.620Z,4.30
2018-02-19T21:53:06.133Z,4.20
2018-02-19T21:55:33.699Z,4.30
2018-02-19T21:58:01.262Z,4.30
2018-02-19T22:00:28.783Z,4.40
2018-02-19T22:02:56.341Z,4.30
2018-02-19T22:05:23.877Z,4.30
2018-02-19T22:07:51.432Z,4.30
2018-02-19T22:10:19.030Z,4.30
2018-02-19T22:12:46.583Z,4.30
2018-02-19T22:15:14.939Z,4.20
2018-02-19T22:17:42.474Z,4.20
2018-02-19T22:20:10.066Z,4.20
2018-02-19T22:22:37.643Z,4.30
2018-02-19T22:25:05.203Z,4.30
2018-02-19T22:27:32.741Z,4.20
2018-02-19T22:30:00.292Z,4.30
2018-02-19T22:32:27.806Z,4.40
2018-02-19T22:34:55.311Z,4.30
2018-02-19T22:37:23.012Z,4.30
2018-02-19T22:39:51.305Z,4.20
2018-02-19T22:42:18.868Z,4.20
2018-02-19T22:44:46.405Z,4.10
2018-02-19T22:47:13.943Z,4.30
2018-02-19T22:49:41.484Z,4.30
2018-02-19T22:52:09.016Z,4.30
2018-02-19T22:54:36.561Z,4.30
2018-02-19T22:57:04.088Z,4.30
2018-02-19T22:59:31.644Z,4.40
2018-02-19T23:01:59.193Z,4.30
2018-02-19T23:04:26.745Z,4.40
2018-02-19T23:06:54.256Z,4.40
2018-02-19T23:09:21.819Z,4.40
2018-02-19T23:11:50.119Z,4.40
2018-02-19T23:14:17.703Z,4.40
2018-02-19T23:16:45.212Z,4.50
2018-02-19T23:19:13.579Z,4.40
2018-02-19T23:21:41.151Z,4.50
2018-02-19T23:24:08.725Z,4.40
2018-02-19T23:26:36.278Z,4.40
2018-02-19T23:29:03.827Z,4.40
2018-02-19T23:31:31.388Z,4.40
2018-02-19T23:33:59.668Z,4.50
2018-02-19T23:36:27.228Z,4.40
2018-02-19T23:38:55.516Z,4.40
2018-02-19T23:41:23.069Z,4.40
2018-02-19T23:43:51.389Z,4.40
2018-02-19T23:46:18.947Z,4.40
2018-02-19T23:48:46.472Z,4.30
2018-02-19T23:51:14.032Z,4.20
2018-02-19T23:53:41.560Z,4.30
2018-02-19T23:56:09.083Z,4.20
2018-02-19T23:58:36.643Z,4.30
